Archival Weather

Nairobi Jkia

Nairobi Jkia, Kenya (HKJK)

Report from: Sunday, March 19, 2023 1:00 AM EAT
Current time: Tuesday, February 27, 2024 12:41 PM EAT

Current weather – Weather history – Daily summaries
Weather forecast

Temperature20.0°C (68.0°F)
Dew point13.0°C (55.4°F)
Winds 10 kts (5.1 m/s, 11.5 mph) East-Northeast (70°)
Visibility6.2 mi. (10 km)
Clouds Scattered clouds 2,200 ft. (671 m)
Altimeter30.15 in.Hg (1021 mB)
Relative humidity64 %
Density altitude534 ft. (163 m)
Remarks No significant changes expected in the next two hours
Flight conditions Visual Meteorological Conditions
Raw dataHKJK 182200Z 07010KT 9999 SCT022 20/13 Q1021 NOSIG
An error has occurred. This application may no longer respond until reloaded. Reload 🗙